sensor_id;sensor_type;location;lat;lon;timestamp;pressure;altitude;pressure_sealevel;temperature;humidity
3434;BME280;1730;41.932;25.548;2022-08-19T00:01:51;98595.25;;;24.36;100.00
3434;BME280;1730;41.932;25.548;2022-08-19T00:04:18;98554.03;;;24.19;100.00
3434;BME280;1730;41.932;25.548;2022-08-19T00:06:45;98460.87;;;23.63;100.00
3434;BME280;1730;41.932;25.548;2022-08-19T00:09:14;98598.84;;;24.37;100.00
3434;BME280;1730;41.932;25.548;2022-08-19T00:11:41;98605.59;;;24.24;100.00
3434;BME280;1730;41.932;25.548;2022-08-19T00:14:09;98281.69;;;22.35;100.00
3434;BME280;1730;41.932;25.548;2022-08-19T00:16:37;98583.13;;;24.37;100.00
3434;BME280;1730;41.932;25.548;2022-08-19T00:19:04;98602.59;;;24.57;100.00
3434;BME280;1730;41.932;25.548;2022-08-19T00:21:30;98614.25;;;24.64;100.00
3434;BME280;1730;41.932;25.548;2022-08-19T00:23:56;98582.94;;;24.49;100.00
3434;BME280;1730;41.932;25.548;2022-08-19T00:26:27;98623.41;;;24.70;100.00
3434;BME280;1730;41.932;25.548;2022-08-19T00:28:53;98611.81;;;24.68;100.00
3434;BME280;1730;41.932;25.548;2022-08-19T00:31:19;98509.00;;;24.09;100.00
3434;BME280;1730;41.932;25.548;2022-08-19T00:33:44;98618.69;;;24.97;100.00
3434;BME280;1730;41.932;25.548;2022-08-19T00:36:11;98616.16;;;24.91;100.00
3434;BME280;1730;41.932;25.548;2022-08-19T00:38:38;98591.13;;;24.70;100.00
3434;BME280;1730;41.932;25.548;2022-08-19T00:41:10;98620.69;;;24.75;100.00
3434;BME280;1730;41.932;25.548;2022-08-19T00:43:37;98624.84;;;24.78;100.00
3434;BME280;1730;41.932;25.548;2022-08-19T00:46:04;98599.37;;;24.65;100.00
3434;BME280;1730;41.932;25.548;2022-08-19T00:48:31;98621.66;;;24.86;100.00
3434;BME280;1730;41.932;25.548;2022-08-19T00:50:58;98623.50;;;24.80;100.00
3434;BME280;1730;41.932;25.548;2022-08-19T00:53:26;98628.50;;;24.83;100.00
3434;BME280;1730;41.932;25.548;2022-08-19T00:55:55;98631.16;;;24.73;100.00
3434;BME280;1730;41.932;25.548;2022-08-19T00:58:24;98627.16;;;24.59;100.00
3434;BME280;1730;41.932;25.548;2022-08-19T01:00:52;98630.22;;;24.62;100.00
3434;BME280;1730;41.932;25.548;2022-08-19T01:03:19;98645.94;;;24.62;100.00
3434;BME280;1730;41.932;25.548;2022-08-19T01:05:45;98633.75;;;24.58;100.00
3434;BME280;1730;41.932;25.548;2022-08-19T01:08:15;98611.13;;;24.24;100.00
3434;BME280;1730;41.932;25.548;2022-08-19T01:10:44;98426.69;;;23.10;100.00
3434;BME280;1730;41.932;25.548;2022-08-19T01:13:13;98637.44;;;24.15;100.00
3434;BME280;1730;41.932;25.548;2022-08-19T01:15:42;98638.16;;;24.05;100.00
3434;BME280;1730;41.932;25.548;2022-08-19T01:18:11;98619.53;;;23.91;100.00
3434;BME280;1730;41.932;25.548;2022-08-19T01:20:38;98628.50;;;24.03;100.00
3434;BME280;1730;41.932;25.548;2022-08-19T01:23:04;98537.03;;;23.35;100.00
3434;BME280;1730;41.932;25.548;2022-08-19T01:25:39;98632.25;;;23.97;100.00
3434;BME280;1730;41.932;25.548;2022-08-19T01:28:07;98630.41;;;23.20;100.00
3434;BME280;1730;41.932;25.548;2022-08-19T01:30:34;98633.75;;;23.83;100.00
3434;BME280;1730;41.932;25.548;2022-08-19T01:33:01;98639.53;;;23.81;100.00
3434;BME280;1730;41.932;25.548;2022-08-19T01:35:29;98639.59;;;23.86;100.00
3434;BME280;1730;41.932;25.548;2022-08-19T01:38:02;98587.00;;;23.44;100.00
3434;BME280;1730;41.932;25.548;2022-08-19T01:40:32;98640.22;;;23.71;100.00
3434;BME280;1730;41.932;25.548;2022-08-19T01:42:58;98642.41;;;23.69;100.00
3434;BME280;1730;41.932;25.548;2022-08-19T01:45:27;98616.09;;;23.40;100.00
3434;BME280;1730;41.932;25.548;2022-08-19T01:47:55;98597.94;;;23.22;100.00
3434;BME280;1730;41.932;25.548;2022-08-19T01:50:21;98652.06;;;23.33;100.00
3434;BME280;1730;41.932;25.548;2022-08-19T01:52:47;98653.69;;;23.34;100.00
3434;BME280;1730;41.932;25.548;2022-08-19T01:55:16;98523.19;;;22.54;100.00
3434;BME280;1730;41.932;25.548;2022-08-19T01:57:46;98659.16;;;23.29;100.00
3434;BME280;1730;41.932;25.548;2022-08-19T02:00:15;98652.53;;;23.30;100.00
3434;BME280;1730;41.932;25.548;2022-08-19T02:02:42;98650.91;;;23.29;100.00
3434;BME280;1730;41.932;25.548;2022-08-19T02:05:07;98645.97;;;23.31;100.00
3434;BME280;1730;41.932;25.548;2022-08-19T02:07:35;98573.19;;;22.84;100.00
3434;BME280;1730;41.932;25.548;2022-08-19T02:10:06;98654.53;;;23.35;100.00
3434;BME280;1730;41.932;25.548;2022-08-19T02:12:32;98656.12;;;23.31;100.00
3434;BME280;1730;41.932;25.548;2022-08-19T02:14:59;98554.28;;;22.71;100.00
3434;BME280;1730;41.932;25.548;2022-08-19T02:17:26;98691.91;;;23.31;100.00
3434;BME280;1730;41.932;25.548;2022-08-19T02:19:53;98673.25;;;23.16;100.00
3434;BME280;1730;41.932;25.548;2022-08-19T02:22:19;98387.34;;;21.16;100.00
3434;BME280;1730;41.932;25.548;2022-08-19T02:24:45;98683.00;;;22.90;100.00
3434;BME280;1730;41.932;25.548;2022-08-19T02:27:10;98541.66;;;21.80;100.00
3434;BME280;1730;41.932;25.548;2022-08-19T02:29:36;98686.53;;;22.58;100.00
3434;BME280;1730;41.932;25.548;2022-08-19T02:32:02;98705.69;;;22.81;100.00
3434;BME280;1730;41.932;25.548;2022-08-19T02:34:27;98707.50;;;22.75;100.00
3434;BME280;1730;41.932;25.548;2022-08-19T02:36:53;98598.91;;;22.16;100.00
3434;BME280;1730;41.932;25.548;2022-08-19T02:39:19;98708.09;;;22.66;100.00
3434;BME280;1730;41.932;25.548;2022-08-19T02:41:44;98579.81;;;21.81;100.00
3434;BME280;1730;41.932;25.548;2022-08-19T02:44:10;98694.09;;;22.51;100.00
3434;BME280;1730;41.932;25.548;2022-08-19T02:46:37;98637.81;;;22.25;100.00
3434;BME280;1730;41.932;25.548;2022-08-19T02:49:07;98718.88;;;22.67;100.00
3434;BME280;1730;41.932;25.548;2022-08-19T02:51:36;98732.16;;;22.59;100.00
3434;BME280;1730;41.932;25.548;2022-08-19T02:54:04;98289.09;;;19.93;100.00
3434;BME280;1730;41.932;25.548;2022-08-19T02:56:30;98729.25;;;22.65;100.00
3434;BME280;1730;41.932;25.548;2022-08-19T02:58:56;98727.06;;;22.51;100.00
3434;BME280;1730;41.932;25.548;2022-08-19T03:01:25;98741.06;;;22.49;100.00
3434;BME280;1730;41.932;25.548;2022-08-19T03:03:51;98744.66;;;22.38;100.00
3434;BME280;1730;41.932;25.548;2022-08-19T03:06:17;98756.31;;;22.28;100.00
3434;BME280;1730;41.932;25.548;2022-08-19T03:08:45;98765.28;;;22.24;100.00
3434;BME280;1730;41.932;25.548;2022-08-19T03:11:19;98758.69;;;22.25;100.00
3434;BME280;1730;41.932;25.548;2022-08-19T03:13:45;98784.13;;;22.32;100.00
3434;BME280;1730;41.932;25.548;2022-08-19T03:16:12;98771.44;;;22.31;100.00
3434;BME280;1730;41.932;25.548;2022-08-19T03:18:38;98766.56;;;22.21;100.00
3434;BME280;1730;41.932;25.548;2022-08-19T03:21:04;98765.13;;;22.30;100.00
3434;BME280;1730;41.932;25.548;2022-08-19T03:23:30;98558.88;;;21.12;100.00
3434;BME280;1730;41.932;25.548;2022-08-19T03:25:55;98106.94;;;18.53;100.00
3434;BME280;1730;41.932;25.548;2022-08-19T03:28:21;98427.91;;;20.39;100.00
3434;BME280;1730;41.932;25.548;2022-08-19T03:31:03;98652.81;;;21.66;100.00
3434;BME280;1730;41.932;25.548;2022-08-19T03:33:30;98787.44;;;22.34;100.00
3434;BME280;1730;41.932;25.548;2022-08-19T03:36:22;98788.56;;;22.21;100.00
3434;BME280;1730;41.932;25.548;2022-08-19T03:38:51;98766.84;;;22.08;100.00
3434;BME280;1730;41.932;25.548;2022-08-19T03:41:20;98799.63;;;22.38;100.00
3434;BME280;1730;41.932;25.548;2022-08-19T03:43:46;98799.50;;;22.44;100.00
3434;BME280;1730;41.932;25.548;2022-08-19T03:46:16;98799.59;;;22.50;100.00
3434;BME280;1730;41.932;25.548;2022-08-19T03:48:43;98806.16;;;22.48;100.00
3434;BME280;1730;41.932;25.548;2022-08-19T03:51:21;98800.38;;;22.62;100.00
3434;BME280;1730;41.932;25.548;2022-08-19T03:53:48;98796.06;;;22.66;100.00
3434;BME280;1730;41.932;25.548;2022-08-19T03:56:14;98802.78;;;22.70;100.00
3434;BME280;1730;41.932;25.548;2022-08-19T03:58:40;98799.72;;;22.83;100.00
3434;BME280;1730;41.932;25.548;2022-08-19T04:01:10;98802.16;;;22.79;100.00
3434;BME280;1730;41.932;25.548;2022-08-19T04:03:39;98774.34;;;22.92;100.00
3434;BME280;1730;41.932;25.548;2022-08-19T04:08:42;98787.13;;;23.32;100.00
3434;BME280;1730;41.932;25.548;2022-08-19T04:11:11;98787.06;;;23.27;100.00
3434;BME280;1730;41.932;25.548;2022-08-19T04:13:37;98790.53;;;23.22;100.00
3434;BME280;1730;41.932;25.548;2022-08-19T04:16:04;98629.22;;;22.66;100.00
3434;BME280;1730;41.932;25.548;2022-08-19T04:18:30;98728.87;;;23.52;100.00
3434;BME280;1730;41.932;25.548;2022-08-19T04:20:56;98796.09;;;24.11;100.00
3434;BME280;1730;41.932;25.548;2022-08-19T04:23:22;98656.78;;;23.55;100.00
3434;BME280;1730;41.932;25.548;2022-08-19T04:25:48;98634.31;;;23.63;100.00
3434;BME280;1730;41.932;25.548;2022-08-19T04:28:14;98730.69;;;24.45;100.00
3434;BME280;1730;41.932;25.548;2022-08-19T04:30:43;98649.50;;;23.87;100.00
3434;BME280;1730;41.932;25.548;2022-08-19T04:33:11;98748.84;;;24.67;100.00
3434;BME280;1730;41.932;25.548;2022-08-19T04:35:41;98570.09;;;24.06;100.00
3434;BME280;1730;41.932;25.548;2022-08-19T04:38:09;98738.56;;;25.11;100.00
3434;BME280;1730;41.932;25.548;2022-08-19T04:40:40;98737.59;;;25.28;100.00
3434;BME280;1730;41.932;25.548;2022-08-19T04:43:24;98728.66;;;25.84;100.00
3434;BME280;1730;41.932;25.548;2022-08-19T04:45:51;98637.37;;;25.22;100.00
3434;BME280;1730;41.932;25.548;2022-08-19T04:48:17;98701.84;;;25.80;100.00
3434;BME280;1730;41.932;25.548;2022-08-19T04:50:56;98726.25;;;26.65;100.00
3434;BME280;1730;41.932;25.548;2022-08-19T04:53:30;98649.88;;;26.69;100.00
3434;BME280;1730;41.932;25.548;2022-08-19T04:55:57;98721.09;;;27.19;100.00
3434;BME280;1730;41.932;25.548;2022-08-19T04:58:27;98716.38;;;27.60;100.00
3434;BME280;1730;41.932;25.548;2022-08-19T05:00:53;98719.13;;;27.30;100.00
3434;BME280;1730;41.932;25.548;2022-08-19T05:03:20;98720.47;;;27.83;100.00
3434;BME280;1730;41.932;25.548;2022-08-19T05:05:47;98694.16;;;27.86;100.00
3434;BME280;1730;41.932;25.548;2022-08-19T05:08:19;98705.16;;;28.21;100.00
3434;BME280;1730;41.932;25.548;2022-08-19T05:10:47;98713.81;;;28.63;100.00
3434;BME280;1730;41.932;25.548;2022-08-19T05:13:14;98706.53;;;28.78;100.00
3434;BME280;1730;41.932;25.548;2022-08-19T05:15:41;98673.31;;;28.57;100.00
3434;BME280;1730;41.932;25.548;2022-08-19T05:18:07;98708.97;;;29.57;100.00
3434;BME280;1730;41.932;25.548;2022-08-19T05:20:51;98726.84;;;30.27;100.00
3434;BME280;1730;41.932;25.548;2022-08-19T05:23:36;98430.13;;;28.72;100.00
3434;BME280;1730;41.932;25.548;2022-08-19T05:26:02;98567.09;;;29.91;100.00
3434;BME280;1730;41.932;25.548;2022-08-19T05:28:28;98713.78;;;30.89;100.00
3434;BME280;1730;41.932;25.548;2022-08-19T05:30:53;98636.31;;;30.91;100.00
3434;BME280;1730;41.932;25.548;2022-08-19T05:33:21;98696.63;;;31.19;100.00
3434;BME280;1730;41.932;25.548;2022-08-19T05:35:48;98708.97;;;31.13;100.00
3434;BME280;1730;41.932;25.548;2022-08-19T05:38:16;98707.56;;;32.49;96.49
3434;BME280;1730;41.932;25.548;2022-08-19T05:40:42;98711.50;;;32.07;98.06
3434;BME280;1730;41.932;25.548;2022-08-19T05:43:15;98701.16;;;32.07;100.00
3434;BME280;1730;41.932;25.548;2022-08-19T05:45:42;98698.78;;;32.28;86.56
3434;BME280;1730;41.932;25.548;2022-08-19T05:48:10;98700.09;;;32.58;87.94
3434;BME280;1730;41.932;25.548;2022-08-19T05:50:40;98709.94;;;32.55;87.59
3434;BME280;1730;41.932;25.548;2022-08-19T05:53:07;98713.75;;;32.59;89.48
3434;BME280;1730;41.932;25.548;2022-08-19T05:55:37;98730.53;;;32.73;89.31
3434;BME280;1730;41.932;25.548;2022-08-19T05:58:04;98717.59;;;32.09;95.24
3434;BME280;1730;41.932;25.548;2022-08-19T06:00:42;98601.50;;;32.08;91.55
3434;BME280;1730;41.932;25.548;2022-08-19T06:03:08;98727.31;;;32.66;89.33
3434;BME280;1730;41.932;25.548;2022-08-19T06:05:35;98726.69;;;33.05;86.71
3434;BME280;1730;41.932;25.548;2022-08-19T06:08:01;98748.09;;;32.60;90.53
3434;BME280;1730;41.932;25.548;2022-08-19T06:10:27;98664.75;;;31.39;95.55
3434;BME280;1730;41.932;25.548;2022-08-19T06:12:53;98726.47;;;32.66;91.62
3434;BME280;1730;41.932;25.548;2022-08-19T06:15:19;98726.88;;;32.86;89.05
3434;BME280;1730;41.932;25.548;2022-08-19T06:17:46;98734.56;;;33.17;83.35
3434;BME280;1730;41.932;25.548;2022-08-19T06:20:14;98666.69;;;32.67;83.45
3434;BME280;1730;41.932;25.548;2022-08-19T06:22:41;98729.38;;;33.10;85.66
3434;BME280;1730;41.932;25.548;2022-08-19T06:25:07;98733.47;;;33.26;82.64
3434;BME280;1730;41.932;25.548;2022-08-19T06:27:34;98736.59;;;33.25;74.59
3434;BME280;1730;41.932;25.548;2022-08-19T06:30:01;98715.56;;;33.14;78.00
3434;BME280;1730;41.932;25.548;2022-08-19T06:32:27;98745.59;;;33.88;74.59
3434;BME280;1730;41.932;25.548;2022-08-19T06:34:53;98734.53;;;33.83;69.46
3434;BME280;1730;41.932;25.548;2022-08-19T06:37:19;98731.88;;;34.09;64.12
3434;BME280;1730;41.932;25.548;2022-08-19T06:39:47;98734.44;;;34.28;68.85
3434;BME280;1730;41.932;25.548;2022-08-19T06:42:13;98736.66;;;34.09;67.38
3434;BME280;1730;41.932;25.548;2022-08-19T06:44:42;98740.88;;;33.97;64.81
3434;BME280;1730;41.932;25.548;2022-08-19T06:47:13;98740.91;;;33.53;70.99
3434;BME280;1730;41.932;25.548;2022-08-19T06:49:39;98738.56;;;33.11;76.05
3434;BME280;1730;41.932;25.548;2022-08-19T06:52:05;98744.84;;;32.94;78.29
3434;BME280;1730;41.932;25.548;2022-08-19T06:54:31;98746.00;;;32.79;81.19
3434;BME280;1730;41.932;25.548;2022-08-19T06:56:58;98739.09;;;32.77;80.43
3434;BME280;1730;41.932;25.548;2022-08-19T06:59:28;98637.16;;;31.70;78.65
3434;BME280;1730;41.932;25.548;2022-08-19T07:01:56;98746.41;;;32.04;87.84
3434;BME280;1730;41.932;25.548;2022-08-19T07:04:24;98724.56;;;31.47;78.57
3434;BME280;1730;41.932;25.548;2022-08-19T07:07:04;98741.41;;;32.34;85.12
3434;BME280;1730;41.932;25.548;2022-08-19T07:09:32;98731.34;;;32.46;78.95
3434;BME280;1730;41.932;25.548;2022-08-19T07:11:58;98707.06;;;31.60;83.66
3434;BME280;1730;41.932;25.548;2022-08-19T07:14:26;98742.56;;;32.00;82.67
3434;BME280;1730;41.932;25.548;2022-08-19T07:16:54;98743.25;;;32.11;80.31
3434;BME280;1730;41.932;25.548;2022-08-19T07:19:22;98754.44;;;31.92;86.24
3434;BME280;1730;41.932;25.548;2022-08-19T07:21:50;98735.56;;;31.89;86.46
3434;BME280;1730;41.932;25.548;2022-08-19T07:24:19;98736.69;;;32.02;86.12
3434;BME280;1730;41.932;25.548;2022-08-19T07:26:47;98736.31;;;32.36;81.07
3434;BME280;1730;41.932;25.548;2022-08-19T07:29:13;98534.41;;;30.58;84.69
3434;BME280;1730;41.932;25.548;2022-08-19T07:31:39;98729.69;;;32.18;84.27
3434;BME280;1730;41.932;25.548;2022-08-19T07:34:07;98731.69;;;31.71;75.47
3434;BME280;1730;41.932;25.548;2022-08-19T07:36:36;98745.97;;;31.84;88.24
3434;BME280;1730;41.932;25.548;2022-08-19T07:39:06;98723.81;;;32.19;81.61
3434;BME280;1730;41.932;25.548;2022-08-19T07:41:32;98730.63;;;32.27;78.86
3434;BME280;1730;41.932;25.548;2022-08-19T07:44:03;98651.25;;;31.33;80.47
3434;BME280;1730;41.932;25.548;2022-08-19T07:46:35;98532.28;;;31.01;83.37
3434;BME280;1730;41.932;25.548;2022-08-19T07:49:01;98623.78;;;31.40;81.99
3434;BME280;1730;41.932;25.548;2022-08-19T07:51:27;98679.75;;;31.89;80.44
3434;BME280;1730;41.932;25.548;2022-08-19T07:53:53;98730.34;;;31.83;83.93
3434;BME280;1730;41.932;25.548;2022-08-19T07:56:20;98738.66;;;32.01;82.70
3434;BME280;1730;41.932;25.548;2022-08-19T07:58:52;98719.94;;;31.88;81.31
3434;BME280;1730;41.932;25.548;2022-08-19T08:01:21;98717.34;;;31.92;84.93
3434;BME280;1730;41.932;25.548;2022-08-19T08:03:48;98727.69;;;32.05;77.11
3434;BME280;1730;41.932;25.548;2022-08-19T08:06:33;98495.69;;;30.75;80.74
3434;BME280;1730;41.932;25.548;2022-08-19T08:09:31;98457.06;;;30.55;78.86
3434;BME280;1730;41.932;25.548;2022-08-19T08:12:07;98712.50;;;31.97;81.08
3434;BME280;1730;41.932;25.548;2022-08-19T08:14:45;98717.59;;;32.23;78.05
3434;BME280;1730;41.932;25.548;2022-08-19T08:17:15;98722.25;;;32.41;78.63
3434;BME280;1730;41.932;25.548;2022-08-19T08:19:49;98719.75;;;32.39;75.88
3434;BME280;1730;41.932;25.548;2022-08-19T08:22:18;98719.75;;;32.26;73.15
3434;BME280;1730;41.932;25.548;2022-08-19T08:25:18;98720.56;;;32.53;73.87
3434;BME280;1730;41.932;25.548;2022-08-19T08:27:45;98715.84;;;32.68;70.36
3434;BME280;1730;41.932;25.548;2022-08-19T08:30:18;98725.41;;;32.61;69.78
3434;BME280;1730;41.932;25.548;2022-08-19T08:32:45;98716.84;;;32.58;59.31
3434;BME280;1730;41.932;25.548;2022-08-19T08:35:15;98613.44;;;31.72;68.45
3434;BME280;1730;41.932;25.548;2022-08-19T08:37:43;98711.47;;;32.48;69.92
3434;BME280;1730;41.932;25.548;2022-08-19T08:42:50;98605.38;;;31.71;71.93
3434;BME280;1730;41.932;25.548;2022-08-19T08:45:44;98712.84;;;32.64;69.43
3434;BME280;1730;41.932;25.548;2022-08-19T08:48:23;98705.97;;;32.84;67.12
3434;BME280;1730;41.932;25.548;2022-08-19T08:50:51;98696.97;;;33.09;64.09
3434;BME280;1730;41.932;25.548;2022-08-19T08:53:20;98700.28;;;32.75;62.69
3434;BME280;1730;41.932;25.548;2022-08-19T08:55:47;98701.97;;;32.35;62.01
3434;BME280;1730;41.932;25.548;2022-08-19T08:58:21;98708.56;;;32.53;61.70
3434;BME280;1730;41.932;25.548;2022-08-19T09:00:50;98411.47;;;31.10;61.07
3434;BME280;1730;41.932;25.548;2022-08-19T09:03:29;98600.09;;;31.83;60.65
3434;BME280;1730;41.932;25.548;2022-08-19T09:09:31;98694.31;;;33.04;58.00
3434;BME280;1730;41.932;25.548;2022-08-19T09:12:03;98688.13;;;32.93;59.03
3434;BME280;1730;41.932;25.548;2022-08-19T09:16:59;98716.31;;;33.19;56.77
3434;BME280;1730;41.932;25.548;2022-08-19T09:19:29;98700.84;;;33.44;58.16
3434;BME280;1730;41.932;25.548;2022-08-19T09:21:55;98683.28;;;33.43;56.16
3434;BME280;1730;41.932;25.548;2022-08-19T09:24:20;98677.31;;;33.00;50.51
3434;BME280;1730;41.932;25.548;2022-08-19T09:26:46;98675.56;;;33.49;53.43
3434;BME280;1730;41.932;25.548;2022-08-19T09:29:12;98557.75;;;32.89;55.38
3434;BME280;1730;41.932;25.548;2022-08-19T09:31:38;98676.63;;;33.62;54.37
3434;BME280;1730;41.932;25.548;2022-08-19T09:34:03;98414.69;;;31.81;51.88
3434;BME280;1730;41.932;25.548;2022-08-19T09:36:30;98676.91;;;33.51;52.08
3434;BME280;1730;41.932;25.548;2022-08-19T09:38:58;98685.78;;;33.76;50.77
3434;BME280;1730;41.932;25.548;2022-08-19T09:41:26;98489.47;;;32.73;49.72
3434;BME280;1730;41.932;25.548;2022-08-19T09:43:54;98515.53;;;32.90;49.38
3434;BME280;1730;41.932;25.548;2022-08-19T09:46:23;98665.06;;;33.77;48.44
3434;BME280;1730;41.932;25.548;2022-08-19T09:48:50;98667.22;;;33.88;50.25
3434;BME280;1730;41.932;25.548;2022-08-19T09:51:26;98673.31;;;33.82;48.01
3434;BME280;1730;41.932;25.548;2022-08-19T09:53:58;98656.53;;;34.30;48.66
3434;BME280;1730;41.932;25.548;2022-08-19T09:56:23;98657.19;;;33.57;47.77
3434;BME280;1730;41.932;25.548;2022-08-19T09:58:49;98661.19;;;33.95;48.32
3434;BME280;1730;41.932;25.548;2022-08-19T10:01:22;98641.19;;;34.19;47.30
3434;BME280;1730;41.932;25.548;2022-08-19T10:03:54;98655.03;;;34.24;47.04
3434;BME280;1730;41.932;25.548;2022-08-19T10:06:22;98651.28;;;34.37;45.89
3434;BME280;1730;41.932;25.548;2022-08-19T10:17:53;98645.25;;;35.12;44.26
3434;BME280;1730;41.932;25.548;2022-08-19T10:20:19;98652.00;;;34.94;44.23
3434;BME280;1730;41.932;25.548;2022-08-19T10:22:45;98646.91;;;35.13;44.46
3434;BME280;1730;41.932;25.548;2022-08-19T10:25:10;98584.75;;;34.86;45.14
3434;BME280;1730;41.932;25.548;2022-08-19T10:27:37;98479.72;;;33.88;45.39
3434;BME280;1730;41.932;25.548;2022-08-19T10:30:03;98593.81;;;34.57;45.14
3434;BME280;1730;41.932;25.548;2022-08-19T10:32:43;98525.75;;;34.22;44.02
3434;BME280;1730;41.932;25.548;2022-08-19T10:35:11;98647.06;;;34.82;44.47
3434;BME280;1730;41.932;25.548;2022-08-19T10:40:51;98642.59;;;35.33;43.38
3434;BME280;1730;41.932;25.548;2022-08-19T10:43:19;98636.72;;;35.72;42.43
3434;BME280;1730;41.932;25.548;2022-08-19T10:45:52;98658.78;;;35.91;42.57
3434;BME280;1730;41.932;25.548;2022-08-19T10:48:20;98217.22;;;33.04;41.98
3434;BME280;1730;41.932;25.548;2022-08-19T10:50:47;98617.53;;;35.19;43.15
3434;BME280;1730;41.932;25.548;2022-08-19T10:53:31;98647.66;;;35.57;42.40
3434;BME280;1730;41.932;25.548;2022-08-19T10:55:58;98638.81;;;35.29;42.01
3434;BME280;1730;41.932;25.548;2022-08-19T10:58:43;98631.16;;;35.47;42.04
3434;BME280;1730;41.932;25.548;2022-08-19T11:01:10;98486.53;;;34.48;42.20
3434;BME280;1730;41.932;25.548;2022-08-19T11:03:42;98116.44;;;32.41;42.03
3434;BME280;1730;41.932;25.548;2022-08-19T11:06:08;98618.09;;;35.68;42.00
3434;BME280;1730;41.932;25.548;2022-08-19T11:14:02;98607.69;;;35.60;42.36
3434;BME280;1730;41.932;25.548;2022-08-19T11:24:24;98608.19;;;36.29;40.29
3434;BME280;1730;41.932;25.548;2022-08-19T11:27:00;98617.00;;;36.28;40.40
3434;BME280;1730;41.932;25.548;2022-08-19T11:29:33;98606.13;;;36.18;40.37
3434;BME280;1730;41.932;25.548;2022-08-19T11:32:00;98429.94;;;35.56;39.42
3434;BME280;1730;41.932;25.548;2022-08-19T11:34:29;98508.00;;;35.92;39.69
3434;BME280;1730;41.932;25.548;2022-08-19T11:42:44;98014.47;;;32.78;39.71
3434;BME280;1730;41.932;25.548;2022-08-19T11:45:24;98588.59;;;36.71;39.35
3434;BME280;1730;41.932;25.548;2022-08-19T11:47:50;98575.22;;;37.00;38.54
3434;BME280;1730;41.932;25.548;2022-08-19T11:50:16;98578.34;;;36.87;38.75
3434;BME280;1730;41.932;25.548;2022-08-19T11:52:42;98550.41;;;36.70;39.12
3434;BME280;1730;41.932;25.548;2022-08-19T11:55:14;98489.75;;;36.27;38.92
3434;BME280;1730;41.932;25.548;2022-08-19T11:57:41;98550.00;;;36.09;39.90
3434;BME280;1730;41.932;25.548;2022-08-19T12:00:10;98564.50;;;36.40;39.37
3434;BME280;1730;41.932;25.548;2022-08-19T12:02:38;98570.69;;;36.54;39.22
3434;BME280;1730;41.932;25.548;2022-08-19T12:05:05;98570.06;;;36.90;38.87
3434;BME280;1730;41.932;25.548;2022-08-19T12:07:31;98520.31;;;36.29;38.41
3434;BME280;1730;41.932;25.548;2022-08-19T12:09:59;98571.28;;;36.39;38.46
3434;BME280;1730;41.932;25.548;2022-08-19T12:12:25;98479.41;;;36.19;39.16
3434;BME280;1730;41.932;25.548;2022-08-19T12:15:01;98555.19;;;36.48;38.83
3434;BME280;1730;41.932;25.548;2022-08-19T12:17:34;98550.84;;;36.92;38.99
3434;BME280;1730;41.932;25.548;2022-08-19T12:20:00;98546.13;;;37.17;38.69
3434;BME280;1730;41.932;25.548;2022-08-19T12:22:25;98542.44;;;37.37;38.18
3434;BME280;1730;41.932;25.548;2022-08-19T12:24:51;98554.91;;;37.61;37.72
3434;BME280;1730;41.932;25.548;2022-08-19T12:27:18;98554.28;;;37.43;38.18
3434;BME280;1730;41.932;25.548;2022-08-19T12:29:44;98355.06;;;36.10;38.18
3434;BME280;1730;41.932;25.548;2022-08-19T12:32:10;98543.91;;;37.23;38.03
3434;BME280;1730;41.932;25.548;2022-08-19T12:34:35;98486.88;;;36.36;38.16
3434;BME280;1730;41.932;25.548;2022-08-19T12:37:07;98542.38;;;36.80;38.71
3434;BME280;1730;41.932;25.548;2022-08-19T12:39:39;98551.50;;;37.10;37.62
3434;BME280;1730;41.932;25.548;2022-08-19T12:42:05;98548.97;;;37.29;37.72
3434;BME280;1730;41.932;25.548;2022-08-19T12:44:31;98545.22;;;37.25;37.49
3434;BME280;1730;41.932;25.548;2022-08-19T12:47:02;98449.81;;;36.22;37.91
3434;BME280;1730;41.932;25.548;2022-08-19T12:49:37;98393.53;;;35.97;38.04
3434;BME280;1730;41.932;25.548;2022-08-19T12:52:05;98539.81;;;36.25;38.74
3434;BME280;1730;41.932;25.548;2022-08-19T12:54:33;98329.06;;;35.39;38.19
3434;BME280;1730;41.932;25.548;2022-08-19T12:57:13;98522.44;;;37.06;38.07
3434;BME280;1730;41.932;25.548;2022-08-19T12:59:52;98441.72;;;36.41;37.34
3434;BME280;1730;41.932;25.548;2022-08-19T13:02:26;98384.19;;;35.64;37.91
3434;BME280;1730;41.932;25.548;2022-08-19T13:05:17;98531.16;;;36.60;37.97
3434;BME280;1730;41.932;25.548;2022-08-19T13:07:59;98525.16;;;37.39;37.22
3434;BME280;1730;41.932;25.548;2022-08-19T13:10:33;98155.22;;;35.18;36.85
3434;BME280;1730;41.932;25.548;2022-08-19T13:13:22;98525.53;;;37.25;37.43
3434;BME280;1730;41.932;25.548;2022-08-19T13:16:00;98527.09;;;37.71;37.43
3434;BME280;1730;41.932;25.548;2022-08-19T13:18:32;98527.34;;;37.66;36.70
3434;BME280;1730;41.932;25.548;2022-08-19T13:23:59;98442.19;;;37.33;35.89
3434;BME280;1730;41.932;25.548;2022-08-19T13:26:25;98519.44;;;37.96;35.74
3434;BME280;1730;41.932;25.548;2022-08-19T13:28:53;98485.66;;;37.96;35.03
3434;BME280;1730;41.932;25.548;2022-08-19T13:31:40;98430.56;;;37.34;35.38
3434;BME280;1730;41.932;25.548;2022-08-19T13:34:32;98507.50;;;37.75;34.70
3434;BME280;1730;41.932;25.548;2022-08-19T13:37:03;98507.28;;;38.04;34.78
3434;BME280;1730;41.932;25.548;2022-08-19T13:39:31;98507.03;;;37.97;34.94
3434;BME280;1730;41.932;25.548;2022-08-19T13:41:58;98510.06;;;38.16;34.99
3434;BME280;1730;41.932;25.548;2022-08-19T13:44:25;98508.03;;;38.29;34.47
3434;BME280;1730;41.932;25.548;2022-08-19T13:46:52;98425.75;;;37.71;34.06
3434;BME280;1730;41.932;25.548;2022-08-19T13:49:19;98501.88;;;37.99;34.32
3434;BME280;1730;41.932;25.548;2022-08-19T13:51:46;98496.81;;;38.05;34.82
3434;BME280;1730;41.932;25.548;2022-08-19T13:54:12;98470.78;;;37.47;33.57
3434;BME280;1730;41.932;25.548;2022-08-19T13:56:42;98500.31;;;37.17;34.38
3434;BME280;1730;41.932;25.548;2022-08-19T13:59:08;98494.09;;;37.23;34.17
3434;BME280;1730;41.932;25.548;2022-08-19T14:01:35;98501.88;;;36.93;34.62
3434;BME280;1730;41.932;25.548;2022-08-19T14:04:01;98418.22;;;35.83;35.17